Main page
METAR-TAF:

METAR-TAF

Airports :

Burgas Airport

Burgas, Bulgaria

latitude: 42-29N, longitude: 027-29E, elevation: 16 m

Current weather observation

The report was made 32 minutes ago, at 00:30 UTC
Wind 5 kt from the West
Temperature 3°C
Humidity 81%
Pressure 1026 hPa
Visibility 10 km or more
no clouds below 1500 m and no cumulonimbus

METAR: LBBG 110030Z 26005KT CAVOK 03/M00 Q1026 NOSIG

Time: 04:02 (01:02 UTC)

Forecast

The report was made 2 hours and 2 minutes ago, at 23:00 UTC
Forecast valid from 11 at 00 UTC to 11 at 24 UTC
Wind 4 kt from variable directions
Visibility 10 km or more
no clouds below 1500 m and no cumulonimbus
Probability 40% :
Temporary
from 11 at 02 UTC to 11 at 06 UTC
Visibility: 5000 m
mist
Becoming
from 11 at 09 UTC to 11 at 11 UTC
Wind 12 kt from the East/Southeast

TAF: LBBG 102300Z 1100/1124 VRB04KT CAVOK PROB40 TEMPO 1102/1106 5000 BR NSC BECMG 1109/1111 12012KT

Weather observations and forecasts of more than 4000 airports (METAR and TAF reports).

The available stations are represented by yellow and red dots on the map.

Hover mouse over dot to see the name of the station.

Then click to see weather observations and forecasts.

To change the map : click on the green buttons with a black cross to zoom in, on the green button with a dash to zoom out, or on the green arrows for adjacent maps.


METAR-TAF: